• Join FlightAware (Why Join?)
  • Login
  • US Flag 
08:21AM EDT


 

Airport Tracker/Info


-or-


 

Live Flight TrackerFlight Track Log ✈ FFT975 ✈ 02-May-2013 ✈ KTTN - KFLL

Flight Track Log - Related Links

Times and Time Zones

All times are in EDT time to prevent confusion due to time zone crossing. See the FFT975 flight status page for this flight to view local times or setup timezone preferences in your user account.

Time Position Orientation Groundspeed Altitude Reporting Facility
EDT Latitude Longitude Course Direction KTS MPH feet Rate Location/Type
04:39PM 40.2833 -74.8000 57° Northeast 162 186 900  Level Philadelphia TRACON
04:39PM 40.3000 -74.7667 57° Northeast 169 194 2,100 1,500 Climbing Philadelphia TRACON
04:41PM 40.1761 -74.8229 217° Southwest  Level Estimated
04:44PM 40.0000 -75.0000 180° South 293 337 9,500  Level Philadelphia TRACON
04:46PM 39.8959 -75.1040 217° Southwest  Level FlightAware Approximate
04:46PM 39.8333 -75.1000 189° South 351 404 10,100  Level Philadelphia TRACON
04:47PM 39.7500 -75.1667 212° Southwest 348 400 11,900 720 Climbing Philadelphia TRACON
04:48PM 39.4321 -75.1559 191° South  Level Estimated
04:49PM 39.3257 -75.2029 180° South  Level Estimated
04:49PM 39.5903 -75.2711 207° Southwest 362 417 12,400  Level Washington Center
04:50PM 39.2193 -75.2498 180° South  Level Estimated
04:50PM 39.4986 -75.3281 206° Southwest 362 417 14,700  Level Washington Center
04:51PM 39.3944 -75.3500 189° South 368 423 15,900 900 Climbing Washington Center
04:52PM 39.2903 -75.3664 187° South 380 437 16,500 480 Climbing Washington Center
04:53PM 39.1951 -75.3683 194° South  Level FlightAware Approximate
04:53PM 39.1842 -75.3853 188° South 385 443 16,900  Level Washington Center
04:54PM 39.0850 -75.3963 189° South  Level FlightAware Approximate
04:54PM 39.0778 -75.4017 187° South 390 449 17,800  Level Washington Center
04:55PM 38.9714 -75.4153 186° South 390 449 19,700 1,800 Climbing Washington Center
04:56PM 38.8611 -75.4344 188° South 395 455 21,400 1,620 Climbing Washington Center
04:57PM 38.7444 -75.4533 187° South 415 478 23,000 1,620 Climbing Washington Center
04:58PM 38.6256 -75.4667 185° South 426 490 24,700 1,320 Climbing Washington Center
04:59PM 38.5067 -75.4883 188° South 426 490 25,700 960 Climbing Washington Center
05:00PM 38.3794 -75.5097 188° South 443 510 26,700 1,140 Climbing Washington Center
05:01PM 38.2525 -75.5917 207° Southwest 457 526 28,000 1,140 Climbing Washington Center
05:02PM 38.1503 -75.6947 218° Southwest 465 535 29,100 1,140 Climbing Washington Center
05:03PM 38.0417 -75.7922 215° Southwest 476 548 30,400 1,320 Climbing Washington Center
05:04PM 37.9372 -75.8919 217° Southwest 476 548 31,800 1,200 Climbing Washington Center
05:05PM 37.8450 -75.9811 217° Southwest 476 548 32,800 840 Climbing Washington Center
05:06PM 37.7406 -76.0803 217° Southwest 481 554 33,600 900 Climbing Washington Center
05:07PM 37.6336 -76.1739 215° Southwest 476 548 34,700 1,140 Climbing Washington Center
05:08PM 37.5311 -76.2675 216° Southwest 471 542 35,900 660 Climbing Washington Center
05:09PM 37.4283 -76.3633 217° Southwest 471 542 36,000  Climbing Washington Center
05:10PM 37.3275 -76.4564 216° Southwest 466 536 36,000  Level Washington Center
05:11PM 37.2244 -76.5492 216° Southwest 460 529 36,000  Level Washington Center
05:12PM 37.1111 -76.6414 213° Southwest 455 524 36,000  Level Washington Center
05:13PM 36.9958 -76.7050 204° Southwest 455 524 36,000  Level Washington Center
05:14PM 36.8783 -76.7656 202° Southwest 455 524 36,000  Level Washington Center
05:15PM 36.7611 -76.8286 203° Southwest 455 524 36,000  Level Washington Center
05:16PM 36.6414 -76.8914 203° Southwest 461 531 36,100  Climbing Washington Center
05:17PM 36.5239 -76.9567 204° Southwest 461 531 36,100 -60 Level Washington Center
05:18PM 36.4167 -77.0142 203° Southwest 461 531 36,000 -60 Descending Washington Center
05:19PM 36.2992 -77.0739 202° Southwest 461 531 36,000  Level Washington Center
05:20PM 36.1836 -77.1361 203° Southwest 461 531 36,000  Level Washington Center
05:21PM 36.0744 -77.1931 203° Southwest 455 524 36,000  Level Washington Center
05:22PM 35.9608 -77.2550 204° Southwest 450 518 36,000  Level Washington Center
05:23PM 35.8453 -77.3139 202° Southwest 450 518 36,000  Level Washington Center
05:24PM 35.7275 -77.3728 202° Southwest 450 518 36,000  Level Washington Center
05:25PM 35.6161 -77.4317 203° Southwest 444 511 36,000  Level Washington Center
05:26PM 35.5025 -77.4903 203° Southwest 439 505 36,000  Level Washington Center
05:27PM 35.3908 -77.5539 205° Southwest 439 505 36,000  Level Washington Center
05:28PM 35.2914 -77.6381 215° Southwest 439 505 36,000  Level Washington Center
05:29PM 35.2000 -77.7347 221° Southwest 439 505 36,000  Level Washington Center
05:30PM 35.1064 -77.8289 219° Southwest 439 505 36,000  Level Washington Center
05:31PM 35.0150 -77.9250 221° Southwest 439 505 36,000  Level Washington Center
05:32PM 34.9214 -78.0186 219° Southwest 439 505 36,000  Level Washington Center
05:34PM 34.7244 -78.2272 221° Southwest 437 503 36,000  Level Jacksonville Center
05:35PM 34.6339 -78.3206 220° Southwest 437 503 36,000  Level Jacksonville Center
05:36PM 34.5414 -78.4161 220° Southwest 443 510 36,000  Level Jacksonville Center
05:37PM 34.4486 -78.5092 220° Southwest 443 510 36,000 -60 Level Jacksonville Center
05:38PM 34.3581 -78.5992 219° Southwest 443 510 35,900 180 Descending Jacksonville Center
05:39PM 34.2772 -78.6836 221° Southwest 438 504 36,400 720 Climbing Jacksonville Center
05:40PM 34.1681 -78.7892 219° Southwest 438 504 37,400 780 Climbing Jacksonville Center
05:41PM 34.0772 -78.8761 218° Southwest 438 504 38,000 300 Climbing Jacksonville Center
05:42PM 33.9903 -78.9653 220° Southwest 432 497 38,000  Level Jacksonville Center
05:43PM 33.9011 -79.0569 220° Southwest 427 491 38,000  Level Jacksonville Center
05:44PM 33.8100 -79.1433 218° Southwest 427 491 38,000  Level Jacksonville Center
05:45PM 33.7186 -79.2322 219° Southwest 427 491 38,000  Level Jacksonville Center
05:46PM 33.6375 -79.3128 220° Southwest 414 476 38,000  Level Jacksonville Center
05:47PM 33.5461 -79.4036 220° Southwest 414 476 38,000 -60 Level Jacksonville Center
05:48PM 33.4567 -79.4894 219° Southwest 414 476 37,900 -60 Descending Jacksonville Center
05:49PM 33.3672 -79.5797 220° Southwest 414 476 37,900  Level Jacksonville Center
05:50PM 33.2797 -79.6650 219° Southwest 414 476 38,000  Climbing Jacksonville Center
05:51PM 33.1900 -79.7528 219° Southwest 414 476 38,000  Level Jacksonville Center
05:52PM 33.1003 -79.8353 218° Southwest 414 476 38,000  Level Jacksonville Center
05:53PM 33.0106 -79.9225 219° Southwest 414 476 38,000  Level Jacksonville Center
05:54PM 32.9206 -80.0097 219° Southwest 419 482 38,000  Level Jacksonville Center
05:55PM 32.8389 -80.0789 215° Southwest 414 476 38,000  Level Jacksonville Center
05:56PM 32.7422 -80.1486 211° Southwest 409 471 38,000  Level Jacksonville Center
05:57PM 32.6478 -80.2206 213° Southwest 409 471 38,000 -60 Level Jacksonville Center
05:58PM 32.5531 -80.2900 212° Southwest 409 471 37,900  Descending Jacksonville Center
05:59PM 32.4583 -80.3567 211° Southwest 409 471 38,000  Climbing Jacksonville Center
06:00PM 32.3658 -80.4256 212° Southwest 404 465 38,000  Level Jacksonville Center
06:01PM 32.2753 -80.4919 212° Southwest 399 459 38,000  Level Jacksonville Center
06:02PM 32.1783 -80.5511 207° Southwest 393 452 38,000  Level Jacksonville Center
06:03PM 32.0664 -80.5956 199° South 387 445 38,000  Level Jacksonville Center
06:04PM 31.9753 -80.6319 199° South 387 445 38,000  Level Jacksonville Center
06:05PM 31.8633 -80.6764 199° South 383 441 38,000  Level Jacksonville Center
06:06PM 31.7636 -80.7153 198° South 383 441 38,000  Level Jacksonville Center
06:07PM 31.6703 -80.7494 197° South 383 441 38,000  Level Jacksonville Center
06:08PM 31.5583 -80.7958 199° South 383 441 38,000  Level Jacksonville Center
06:09PM 31.4692 -80.8294 198° South 389 448 38,100  Climbing Jacksonville Center
06:10PM 31.3569 -80.8733 198° South 384 442 38,000 -60 Descending Jacksonville Center
06:11PM 31.2636 -80.9117 199° South 384 442 38,000  Level Jacksonville Center
06:12PM 31.1619 -80.9528 199° South 384 442 38,000  Level Jacksonville Center
06:13PM 31.0603 -80.9911 198° South 384 442 38,000  Level Jacksonville Center
06:14PM 30.9586 -81.0297 198° South 384 442 38,000  Level Jacksonville Center
06:15PM 30.8569 -81.0703 199° South 384 442 38,000  Level Jacksonville Center
06:16PM 30.7550 -81.1086 198° South 384 442 38,000  Level Jacksonville Center
06:17PM 30.6511 -81.1442 196° South 384 442 38,000  Level Jacksonville Center
06:18PM 30.5447 -81.1511 183° South 389 448 38,000  Level Jacksonville Center
06:19PM 30.4403 -81.1336 172° South 384 442 38,000  Level Jacksonville Center
06:20PM 30.3353 -81.0922 161° South 384 442 38,000 -60 Level Jacksonville Center
06:21PM 30.2322 -81.0508 161° South 395 455 37,900 -60 Descending Jacksonville Center
06:22PM 30.1294 -81.0072 160° South 395 455 37,900  Level Jacksonville Center
06:23PM 30.0244 -80.9661 161° South 395 455 37,900  Level Jacksonville Center
06:24PM 29.9214 -80.9250 161° South 395 455 38,000  Climbing Jacksonville Center
06:25PM 29.8144 -80.8842 162° South 395 455 38,000  Level Jacksonville Center
06:26PM 29.7114 -80.8433 161° South 400 460 38,000 -60 Level Jacksonville Center
06:28PM 29.4994 -80.7561 160° South 389 448 37,900  Descending Miami Center
06:29PM 29.3858 -80.7117 161° South 389 448 38,000  Climbing Miami Center
06:30PM 29.2806 -80.6700 161° South 394 453 38,000  Level Miami Center
06:31PM 29.1731 -80.6328 163° South 399 459 38,000  Level Miami Center
06:32PM 29.0825 -80.5942 160° South 399 459 38,000  Level Miami Center
06:33PM 28.9772 -80.5525 161° South 399 459 38,000  Level Miami Center
06:34PM 28.8761 -80.5089 159° South 399 459 38,000  Level Miami Center
06:35PM 28.7583 -80.4625 161° South 399 459 38,000  Level Miami Center
06:36PM 28.6575 -80.4047 153° Southeast 404 465 38,000  Level Miami Center
06:37PM 28.5678 -80.3192 140° Southeast 411 473 38,000  Level Miami Center
06:38PM 28.4925 -80.2389 137° Southeast 417 480 38,000  Level Miami Center
06:39PM 28.4003 -80.1631 144° Southeast 417 480 38,000  Level Miami Center
06:40PM 28.2853 -80.1808 188° South 377 434 38,000  Level Miami Center
06:41PM 28.2161 -80.2731 230° Southwest 370 426 38,000  Level Miami Center
06:42PM 28.1736 -80.3942 248° West 381 438 38,100 -60 Climbing Miami Center
06:43PM 28.1272 -80.4964 243° Southwest 406 467 37,900 -300 Descending Miami Center
06:44PM 28.0278 -80.5519 206° Southwest 380 437 37,500 -420 Descending Miami Center
06:45PM 27.9225 -80.5111 161° South 343 395 37,100 -420 Descending Miami Center
06:46PM 27.8458 -80.4006 128° Southeast 361 415 36,700 -600 Descending Miami Center
06:47PM 27.8386 -80.2617 93° East 379 436 36,000 -1,080 Descending Miami Center
06:48PM 27.8669 -80.1217 77° East 400 460 34,600 -1,560 Descending Miami Center
06:49PM 27.8933 -79.9675 79° East 448 516 32,900 -1,500 Descending Miami Center
06:50PM 27.9106 -79.8411 81° East 448 516 31,600 -1,380 Descending Miami Center
06:51PM 27.9322 -79.6981 80° East 454 522 30,200 -900 Descending Miami Center
06:52PM 27.8867 -79.5725 112° Southeast 438 504 29,800 -720 Descending Miami Center
06:53PM 27.7831 -79.5347 162° South 347 399 28,800 -1,080 Descending Miami Center
06:54PM 27.6797 -79.5933 207° Southwest 337 388 27,700 -1,020 Descending Miami Center
06:55PM 27.5847 -79.6403 197° South 357 411 26,800 -960 Descending Miami Center
06:56PM 27.5644 -79.6341 197° South  Level Estimated
06:56PM 27.4961 -79.6850 204° Southwest 362 417 25,800  Level Miami Center
06:57PM 27.4175 -79.6597 164° South 309 356 24,800 -960 Descending Miami Center
06:58PM 27.3481 -79.5761 133° Southeast 323 372 23,900 -1,080 Descending Miami Center
06:59PM 27.2458 -79.5622 173° South 321 369 22,700 -1,260 Descending Miami Center
07:00PM 27.1536 -79.5833 192° South 326 375 21,400 -1,260 Descending Miami Center
07:01PM 27.0739 -79.6025 192° South 332 382 20,200 -1,320 Descending Miami Center
07:02PM 26.9836 -79.6258 193° South 338 389 18,800 -1,560 Descending Miami Center
07:03PM 26.8892 -79.6492 192° South 333 383 17,100 -1,440 Descending Miami Center
07:04PM 26.8178 -79.6661 192° South 326 375 16,000 -1,500 Descending Miami Center
07:05PM 26.7169 -79.6986 196° South 326 375 14,200 -1,920 Descending Miami Center
07:06PM 26.6453 -79.7342 204° Southwest 314 361 12,200 -2,220 Descending Miami Center
07:07PM 26.5631 -79.7739 203° Southwest 304 350 9,800 -2,220 Descending Miami Center
07:08PM 26.5378 -79.7872 205° Southwest 299 344 9,300 -1,500 Descending Miami Center
07:08PM 26.4892 -79.8092 202° Southwest 294 338 8,400 -840 Descending Miami Center
07:09PM 26.4175 -79.8447 204° Southwest 280 322 8,000 -420 Descending Miami Center
07:10PM 26.3603 -79.8825 211° Southwest 234 269 7,600 -960 Descending Miami Center
07:11PM 26.3072 -79.9300 219° Southwest 239 275 6,100 -840 Descending Miami Center
07:12PM 26.2603 -79.9772 222° Southwest 232 267 6,000 -120 Descending Miami Center
07:13PM 26.2111 -80.0222 219° Southwest 234 269 5,900 -60 Descending Miami Center
07:14PM 26.1744 -80.0744 232° Southwest 227 261 5,900  Level Miami Center
07:15PM 26.1678 -80.0906 245° Southwest 212 244 5,900  Level Miami Center
07:15PM 26.1544 -80.1342 251° West 213 245 5,900 -360 Level Miami Center
07:16PM 26.1489 -80.1942 264° West 202 232 5,300 -720 Descending Miami Center
07:17PM 26.1483 -80.2128 268° West 198 228 5,000 -420 Descending Miami Center
07:17PM 26.1494 -80.2544 272° West 202 232 4,900  Descending Miami Center
07:19PM 26.1478 -80.3308 269° West 198 228 5,000  Climbing Miami Center
07:20PM 26.1483 -80.3933 271° West 200 230 5,000  Level Miami Center
07:21PM 26.1344 -80.4531 255° West 204 235 5,000 -120 Level Miami Center
07:22PM 26.0892 -80.4217 148° Southeast 203 234 4,800 -600 Descending Miami Center
07:23PM 26.0758 -80.3703 106° East 198 228 3,900 -1,140 Descending Miami Center
07:24PM 26.0775 -80.3008 88° East 169 194 2,400 -1,080 Descending Miami Center
07:25PM 26.0742 -80.2592 95° East 134 154 1,600 -720 Descending Miami Center
07:26PM 26.0750 -80.2269 88° East 118 136 1,100 -600 Descending Miami Center
07:27PM 26.0739 -80.1853 92° East 115 132 400 -660 Descending Miami Center
07:29PM 26.0667 -80.1500 110° East  Level FlightAware Approximate